createdAt,value
2022-08-28T00:02:15.789Z,19.38
2022-08-28T00:04:44.094Z,19.38
2022-08-28T00:07:12.614Z,19.38
2022-08-28T00:09:40.703Z,19.35
2022-08-28T00:12:09.450Z,19.35
2022-08-28T00:14:40.054Z,19.34
2022-08-28T00:17:08.120Z,19.31
2022-08-28T00:19:38.625Z,19.32
2022-08-28T00:22:07.637Z,19.33
2022-08-28T00:24:36.956Z,19.28
2022-08-28T00:27:23.087Z,19.19
2022-08-28T00:29:52.647Z,19.17
2022-08-28T00:32:23.776Z,18.92
2022-08-28T00:34:53.933Z,19.06
2022-08-28T00:37:24.773Z,19.02
2022-08-28T00:39:53.403Z,19.00
2022-08-28T00:42:21.999Z,18.96
2022-08-28T00:44:50.077Z,18.94
2022-08-28T00:47:19.864Z,18.88
2022-08-28T00:49:51.243Z,18.92
2022-08-28T00:52:20.617Z,18.89
2022-08-28T00:54:59.157Z,18.90
2022-08-28T00:57:32.181Z,18.84
2022-08-28T01:00:00.344Z,18.93
2022-08-28T01:02:31.959Z,18.87
2022-08-28T01:05:00.382Z,18.84
2022-08-28T01:07:28.448Z,18.86
2022-08-28T01:09:58.542Z,18.83
2022-08-28T01:12:30.261Z,18.72
2022-08-28T01:15:03.521Z,18.83
2022-08-28T01:17:37.809Z,18.88
2022-08-28T01:20:15.002Z,18.85
2022-08-28T01:22:50.400Z,18.94
2022-08-28T01:25:24.838Z,18.89
2022-08-28T01:27:52.908Z,18.91
2022-08-28T01:30:24.287Z,18.94
2022-08-28T01:32:55.034Z,18.82
2022-08-28T01:35:26.254Z,18.72
2022-08-28T01:37:56.225Z,18.67
2022-08-28T01:40:30.303Z,18.69
2022-08-28T01:43:08.618Z,18.61
2022-08-28T01:45:37.924Z,18.65
2022-08-28T01:48:07.005Z,18.71
2022-08-28T01:50:36.046Z,18.70
2022-08-28T01:53:06.465Z,18.77
2022-08-28T01:55:42.048Z,18.72
2022-08-28T01:58:11.996Z,18.73
2022-08-28T02:00:41.331Z,18.69
2022-08-28T02:03:10.070Z,18.70
2022-08-28T02:05:40.152Z,18.74
2022-08-28T02:08:09.388Z,18.68
2022-08-28T02:10:43.773Z,18.61
2022-08-28T02:13:13.009Z,18.83
2022-08-28T02:15:42.868Z,18.77
2022-08-28T02:18:11.502Z,18.84
2022-08-28T02:20:39.917Z,18.83
2022-08-28T02:23:08.097Z,18.80
2022-08-28T02:25:36.795Z,18.80
2022-08-28T02:28:06.698Z,18.75
2022-08-28T02:30:37.246Z,18.79
2022-08-28T02:33:05.714Z,18.81
2022-08-28T02:35:34.036Z,18.83
2022-08-28T02:38:02.966Z,18.81
2022-08-28T02:40:31.689Z,18.81
2022-08-28T02:43:00.361Z,18.82
2022-08-28T02:45:29.931Z,18.76
2022-08-28T02:47:58.047Z,18.88
2022-08-28T02:50:26.297Z,18.91
2022-08-28T02:52:55.087Z,18.85
2022-08-28T02:55:24.779Z,18.78
2022-08-28T02:57:54.709Z,18.80
2022-08-28T03:00:24.892Z,18.75
2022-08-28T03:02:54.947Z,18.74
2022-08-28T03:05:25.170Z,18.83
2022-08-28T03:07:54.730Z,18.88
2022-08-28T03:10:23.038Z,18.82
2022-08-28T03:12:51.894Z,18.83
2022-08-28T03:15:20.350Z,18.77
2022-08-28T03:17:48.698Z,18.73
2022-08-28T03:20:20.043Z,18.70
2022-08-28T03:23:05.433Z,18.78
2022-08-28T03:25:33.695Z,18.73
2022-08-28T03:28:01.875Z,18.67
2022-08-28T03:30:30.395Z,18.74
2022-08-28T03:32:58.643Z,18.81
2022-08-28T03:35:28.288Z,18.63
2022-08-28T03:37:56.636Z,18.71
2022-08-28T03:40:25.005Z,18.70
2022-08-28T03:42:53.794Z,18.75
2022-08-28T03:45:22.788Z,18.75
2022-08-28T03:47:51.508Z,18.77
2022-08-28T03:50:19.898Z,18.81
2022-08-28T03:52:49.651Z,18.81
2022-08-28T03:55:19.909Z,18.84
2022-08-28T03:57:48.109Z,18.81
2022-08-28T04:00:17.529Z,18.79
2022-08-28T04:02:46.310Z,18.81
2022-08-28T04:05:17.254Z,18.89
2022-08-28T04:07:45.718Z,18.82
2022-08-28T04:10:15.937Z,18.82
2022-08-28T04:12:44.879Z,18.74
2022-08-28T04:15:15.330Z,18.81
2022-08-28T04:17:43.784Z,18.80
2022-08-28T04:20:12.525Z,18.80
2022-08-28T04:22:41.015Z,18.89
2022-08-28T04:25:09.977Z,18.82
2022-08-28T04:27:40.345Z,18.79
2022-08-28T04:30:10.015Z,18.73
2022-08-28T04:32:39.833Z,18.73
2022-08-28T04:35:11.391Z,18.77
2022-08-28T04:37:40.335Z,18.82
2022-08-28T04:40:11.031Z,18.81
2022-08-28T04:42:45.301Z,18.77
2022-08-28T04:45:13.651Z,18.81
2022-08-28T04:47:41.934Z,18.78
2022-08-28T04:50:12.778Z,18.80
2022-08-28T04:52:40.736Z,18.83
2022-08-28T04:55:10.398Z,18.81
2022-08-28T04:57:38.710Z,18.88
2022-08-28T05:00:11.561Z,18.72
2022-08-28T05:02:40.070Z,18.74
2022-08-28T05:05:09.037Z,18.72
2022-08-28T05:07:37.119Z,18.73
2022-08-28T05:10:05.826Z,18.73
2022-08-28T05:12:35.895Z,18.74
2022-08-28T05:15:04.326Z,18.78
2022-08-28T05:17:34.411Z,18.62
2022-08-28T05:20:02.681Z,18.78
2022-08-28T05:22:32.266Z,18.67
2022-08-28T05:25:01.893Z,18.80
2022-08-28T05:27:30.613Z,18.82
2022-08-28T05:30:01.960Z,18.95
2022-08-28T05:32:30.640Z,18.92
2022-08-28T05:35:00.230Z,18.99
2022-08-28T05:37:28.625Z,18.96
2022-08-28T05:39:57.029Z,19.00
2022-08-28T05:42:29.499Z,19.02
2022-08-28T05:44:59.753Z,19.05
2022-08-28T05:47:27.918Z,19.06
2022-08-28T05:49:56.404Z,19.21
2022-08-28T05:52:26.470Z,19.19
2022-08-28T05:54:54.831Z,19.21
2022-08-28T05:57:23.063Z,19.35
2022-08-28T05:59:51.587Z,19.31
2022-08-28T06:02:19.667Z,19.42
2022-08-28T06:04:49.111Z,19.45
2022-08-28T06:07:17.587Z,19.48
2022-08-28T06:09:47.110Z,19.52
2022-08-28T06:12:15.747Z,19.60
2022-08-28T06:14:44.125Z,19.60
2022-08-28T06:17:13.072Z,19.53
2022-08-28T06:19:41.756Z,19.69
2022-08-28T06:22:12.567Z,19.72
2022-08-28T06:24:40.708Z,19.80
2022-08-28T06:27:10.205Z,19.80
2022-08-28T06:29:40.073Z,19.79
2022-08-28T06:32:09.188Z,19.99
2022-08-28T06:34:37.647Z,19.94
2022-08-28T06:37:08.552Z,19.97
2022-08-28T06:39:36.646Z,20.00
2022-08-28T06:42:05.581Z,20.02
2022-08-28T06:44:35.258Z,20.04
2022-08-28T06:47:03.551Z,20.08
2022-08-28T06:49:31.641Z,20.13
2022-08-28T06:52:00.221Z,20.12
2022-08-28T06:54:31.059Z,20.06
2022-08-28T06:56:59.442Z,20.18
2022-08-28T06:59:27.770Z,20.22
2022-08-28T07:01:57.281Z,20.25
2022-08-28T07:04:25.451Z,20.23
2022-08-28T07:06:54.915Z,20.31
2022-08-28T07:09:24.353Z,20.40
2022-08-28T07:11:52.615Z,20.35
2022-08-28T07:14:20.914Z,20.37
2022-08-28T07:16:49.055Z,20.36
2022-08-28T07:19:18.554Z,20.31
2022-08-28T07:21:48.330Z,20.44
2022-08-28T07:24:17.641Z,20.47
2022-08-28T07:26:47.114Z,20.49
2022-08-28T07:29:15.523Z,20.47
2022-08-28T07:31:45.458Z,20.48
2022-08-28T07:34:14.728Z,20.52
2022-08-28T07:36:44.942Z,20.61
2022-08-28T07:39:14.883Z,20.57
2022-08-28T07:41:43.768Z,20.72
2022-08-28T07:44:31.969Z,20.79
2022-08-28T07:47:04.549Z,20.81
2022-08-28T07:49:34.041Z,20.85
2022-08-28T07:52:04.267Z,20.96
2022-08-28T07:54:32.367Z,20.96
2022-08-28T07:57:02.387Z,21.16
2022-08-28T07:59:36.554Z,21.35
2022-08-28T08:02:07.968Z,21.37
2022-08-28T08:04:38.651Z,21.38
2022-08-28T08:07:09.141Z,21.35
2022-08-28T08:09:43.194Z,21.27
2022-08-28T08:12:13.911Z,21.27
2022-08-28T08:14:43.289Z,21.27
2022-08-28T08:17:12.140Z,21.28
2022-08-28T08:19:41.072Z,21.40
2022-08-28T08:22:14.213Z,21.42
2022-08-28T08:24:43.178Z,21.54
2022-08-28T08:27:11.703Z,21.58
2022-08-28T08:29:40.257Z,21.63
2022-08-28T08:32:11.958Z,21.53
2022-08-28T08:34:42.291Z,21.82
2022-08-28T08:37:11.961Z,22.25
2022-08-28T08:39:43.409Z,22.29
2022-08-28T08:42:22.395Z,22.02
2022-08-28T08:44:53.318Z,22.58
2022-08-28T08:47:24.214Z,22.65
2022-08-28T08:49:56.077Z,22.85
2022-08-28T08:52:40.100Z,22.89
2022-08-28T08:55:24.689Z,22.93
2022-08-28T08:58:03.002Z,22.95
2022-08-28T09:00:34.610Z,23.16
2022-08-28T09:03:10.523Z,22.88
2022-08-28T09:05:45.567Z,22.98
2022-08-28T09:08:23.082Z,22.96
2022-08-28T09:11:02.212Z,23.03
2022-08-28T09:13:42.600Z,23.12
2022-08-28T09:16:22.428Z,23.27
2022-08-28T09:18:51.218Z,23.38
2022-08-28T09:21:30.312Z,23.23
2022-08-28T09:24:05.494Z,23.23
2022-08-28T09:26:36.657Z,23.16
2022-08-28T09:29:11.589Z,23.02
2022-08-28T09:31:42.523Z,23.10
2022-08-28T09:34:30.273Z,23.00
2022-08-28T09:37:00.315Z,23.08
2022-08-28T09:39:30.770Z,22.96
2022-08-28T09:42:23.337Z,23.05
2022-08-28T09:44:59.786Z,22.90
2022-08-28T09:47:48.950Z,22.86
2022-08-28T09:50:24.722Z,23.03
2022-08-28T09:52:55.548Z,23.12
2022-08-28T09:55:33.146Z,23.10
2022-08-28T09:58:03.139Z,23.12
2022-08-28T10:00:35.628Z,23.01
2022-08-28T10:03:14.768Z,22.98
2022-08-28T10:06:00.444Z,22.95
2022-08-28T10:08:39.117Z,22.99
2022-08-28T10:11:20.589Z,22.87
2022-08-28T10:13:58.160Z,22.72
2022-08-28T10:16:36.869Z,22.70
2022-08-28T10:19:14.062Z,22.60
2022-08-28T10:21:47.192Z,22.70
2022-08-28T10:24:39.596Z,22.71
2022-08-28T10:27:15.045Z,22.54
2022-08-28T10:29:54.490Z,22.52
2022-08-28T10:32:43.199Z,22.60
2022-08-28T10:35:16.738Z,22.63
2022-08-28T10:37:59.037Z,22.49
2022-08-28T10:40:32.000Z,22.45
2022-08-28T10:43:07.449Z,22.40
2022-08-28T10:45:39.177Z,22.41
2022-08-28T10:48:11.398Z,22.43
2022-08-28T10:50:45.158Z,22.31
2022-08-28T10:53:17.484Z,22.07
2022-08-28T10:55:55.393Z,21.95
2022-08-28T10:58:27.568Z,21.73
2022-08-28T11:00:59.559Z,21.68
2022-08-28T11:03:36.919Z,21.63
2022-08-28T11:06:11.667Z,21.60
2022-08-28T11:08:41.220Z,21.60
2022-08-28T11:11:15.139Z,21.73
2022-08-28T11:13:51.932Z,21.51
2022-08-28T11:16:36.926Z,21.45
2022-08-28T11:19:52.278Z,21.41
2022-08-28T11:22:24.199Z,21.44
2022-08-28T11:25:04.418Z,21.45
2022-08-28T11:27:38.931Z,21.61
2022-08-28T11:30:34.282Z,21.56
2022-08-28T11:33:06.960Z,21.59
2022-08-28T11:35:45.335Z,21.35
2022-08-28T11:38:34.480Z,21.43
2022-08-28T11:41:14.647Z,21.34
2022-08-28T11:43:45.252Z,21.36
2022-08-28T11:46:31.563Z,21.34
2022-08-28T11:49:03.507Z,21.32
2022-08-28T11:51:44.918Z,21.21
2022-08-28T11:54:29.640Z,21.28
2022-08-28T11:57:09.342Z,21.19
2022-08-28T11:59:57.797Z,21.04
2022-08-28T12:02:49.578Z,21.16
2022-08-28T12:05:54.444Z,21.08
2022-08-28T12:09:11.155Z,21.19
2022-08-28T12:11:54.812Z,21.13
2022-08-28T12:15:07.943Z,21.05
2022-08-28T12:17:54.329Z,21.08
2022-08-28T12:20:36.713Z,21.12
2022-08-28T12:23:33.078Z,20.89
2022-08-28T12:26:04.273Z,20.95
2022-08-28T12:28:34.852Z,20.90
2022-08-28T12:31:48.228Z,20.79
2022-08-28T12:34:26.646Z,20.85
2022-08-28T12:36:59.860Z,20.72
2022-08-28T12:39:32.422Z,20.71
2022-08-28T12:42:03.079Z,20.82
2022-08-28T12:44:34.141Z,20.59
2022-08-28T12:47:02.340Z,20.58
2022-08-28T12:49:34.431Z,20.45
2022-08-28T12:52:16.633Z,20.47
2022-08-28T12:54:47.567Z,20.37
2022-08-28T12:57:18.560Z,20.44
2022-08-28T12:59:49.141Z,20.53
2022-08-28T13:02:27.124Z,20.62
2022-08-28T13:04:59.478Z,20.57
2022-08-28T13:07:31.360Z,20.64
2022-08-28T13:10:04.804Z,20.61
2022-08-28T13:12:55.851Z,20.71
2022-08-28T13:15:49.076Z,20.80
2022-08-28T13:18:43.898Z,20.76
2022-08-28T13:21:33.696Z,20.65
2022-08-28T13:24:27.519Z,20.63
2022-08-28T13:27:07.083Z,20.52
2022-08-28T13:29:38.863Z,20.60
2022-08-28T13:32:18.630Z,20.62
2022-08-28T13:35:09.665Z,20.70
2022-08-28T13:37:50.700Z,20.75
2022-08-28T13:40:46.620Z,20.79
2022-08-28T13:43:11.862Z,20.84
2022-08-28T13:45:44.024Z,20.95
2022-08-28T13:48:13.593Z,21.02
2022-08-28T13:50:44.815Z,20.88
2022-08-28T13:53:17.433Z,20.84
2022-08-28T13:55:46.170Z,20.83
2022-08-28T13:58:16.216Z,20.87
2022-08-28T14:00:47.264Z,21.02
2022-08-28T14:03:33.879Z,20.99
2022-08-28T14:06:03.267Z,20.95
2022-08-28T14:08:32.199Z,20.97
2022-08-28T14:11:00.496Z,20.96
2022-08-28T14:13:30.744Z,20.82
2022-08-28T14:15:59.582Z,20.70
2022-08-28T14:18:28.067Z,20.55
2022-08-28T14:20:56.427Z,20.72
2022-08-28T14:23:24.917Z,20.58
2022-08-28T14:25:52.983Z,20.56
2022-08-28T14:28:21.377Z,20.72
2022-08-28T14:30:52.748Z,20.63
2022-08-28T14:33:21.153Z,20.53
2022-08-28T14:35:50.255Z,20.34
2022-08-28T14:38:19.102Z,20.22
2022-08-28T14:40:47.359Z,20.05
2022-08-28T14:43:16.482Z,20.29
2022-08-28T14:45:47.069Z,20.08
2022-08-28T14:48:18.752Z,20.03
2022-08-28T14:50:48.458Z,19.93
2022-08-28T14:53:17.473Z,19.73
2022-08-28T14:55:48.623Z,19.83
2022-08-28T14:58:17.335Z,19.64
2022-08-28T15:00:49.054Z,19.72
2022-08-28T15:03:20.186Z,19.66
2022-08-28T15:05:48.735Z,19.59
2022-08-28T15:08:18.518Z,19.58
2022-08-28T15:10:48.866Z,19.46
2022-08-28T15:13:17.317Z,19.36
2022-08-28T15:15:45.513Z,19.33
2022-08-28T15:18:13.955Z,19.33
2022-08-28T15:20:46.400Z,19.08
2022-08-28T15:23:16.608Z,18.99
2022-08-28T15:25:44.921Z,19.08
2022-08-28T15:28:13.536Z,19.14
2022-08-28T15:30:42.497Z,19.06
2022-08-28T15:33:10.786Z,19.11
2022-08-28T15:35:39.267Z,19.06
2022-08-28T15:38:10.223Z,18.87
2022-08-28T15:40:55.815Z,19.33
2022-08-28T15:43:24.181Z,19.21
2022-08-28T15:45:52.565Z,18.92
2022-08-28T15:48:20.831Z,19.12
2022-08-28T15:50:49.208Z,19.07
2022-08-28T15:53:19.459Z,19.00
2022-08-28T15:55:48.020Z,19.07
2022-08-28T15:58:16.369Z,19.13
2022-08-28T16:00:44.838Z,19.11
2022-08-28T16:03:13.156Z,18.99
2022-08-28T16:05:41.574Z,18.86
2022-08-28T16:08:10.787Z,18.92
2022-08-28T16:10:41.113Z,18.84
2022-08-28T16:13:09.674Z,18.79
2022-08-28T16:15:38.089Z,18.85
2022-08-28T16:18:09.500Z,18.82
2022-08-28T16:20:38.204Z,18.73
2022-08-28T16:23:06.800Z,18.82
2022-08-28T16:25:35.780Z,18.71
2022-08-28T16:28:06.611Z,18.67
2022-08-28T16:30:38.591Z,18.80
2022-08-28T16:33:12.714Z,18.64
2022-08-28T16:35:54.855Z,18.89
2022-08-28T16:38:24.403Z,18.82
2022-08-28T16:40:52.790Z,18.69
2022-08-28T16:43:22.338Z,18.57
2022-08-28T16:45:51.212Z,18.57
2022-08-28T16:48:19.621Z,18.47
2022-08-28T16:50:47.696Z,18.41
2022-08-28T16:53:16.065Z,18.51
2022-08-28T16:55:52.725Z,18.41
2022-08-28T16:58:22.301Z,18.48
2022-08-28T17:00:52.585Z,18.43
2022-08-28T17:03:26.495Z,18.45
2022-08-28T17:05:56.304Z,18.34
2022-08-28T17:08:25.279Z,18.43
2022-08-28T17:10:53.956Z,18.49
2022-08-28T17:13:23.695Z,18.30
2022-08-28T17:15:52.272Z,18.37
2022-08-28T17:18:20.475Z,18.48
2022-08-28T17:21:06.133Z,18.41
2022-08-28T17:23:38.845Z,18.38
2022-08-28T17:26:10.462Z,18.37
2022-08-28T17:28:40.636Z,18.28
2022-08-28T17:31:11.755Z,18.33
2022-08-28T17:33:41.109Z,18.32
2022-08-28T17:36:17.087Z,18.33
2022-08-28T17:39:01.616Z,18.30
2022-08-28T17:41:30.111Z,18.31
2022-08-28T17:43:59.639Z,18.20
2022-08-28T17:46:27.974Z,18.27
2022-08-28T17:48:56.409Z,18.10
2022-08-28T17:51:33.804Z,18.19
2022-08-28T17:54:13.018Z,18.05
2022-08-28T17:56:41.485Z,18.13
2022-08-28T17:59:11.153Z,17.99
2022-08-28T18:01:45.219Z,18.06
2022-08-28T18:04:21.636Z,18.16
2022-08-28T18:06:54.821Z,17.98
2022-08-28T18:09:24.499Z,17.84
2022-08-28T18:11:53.119Z,18.17
2022-08-28T18:14:23.221Z,18.10
2022-08-28T18:16:51.376Z,18.07
2022-08-28T18:19:20.228Z,18.00
2022-08-28T18:21:48.394Z,18.01
2022-08-28T18:24:17.384Z,18.03
2022-08-28T18:26:47.459Z,18.05
2022-08-28T18:29:16.094Z,18.03
2022-08-28T18:31:46.062Z,17.96
2022-08-28T18:34:14.263Z,18.05
2022-08-28T18:36:42.856Z,18.02
2022-08-28T18:39:12.127Z,18.16
2022-08-28T18:41:43.790Z,18.08
2022-08-28T18:44:14.074Z,17.90
2022-08-28T18:46:42.781Z,17.76
2022-08-28T18:49:13.149Z,17.86
2022-08-28T18:51:45.648Z,17.72
2022-08-28T18:54:16.002Z,17.62
2022-08-28T18:56:45.393Z,17.63
2022-08-28T18:59:14.041Z,17.51
2022-08-28T19:01:42.430Z,17.58
2022-08-28T19:04:12.262Z,17.59
2022-08-28T19:06:42.649Z,17.55
2022-08-28T19:09:19.299Z,17.39
2022-08-28T19:11:49.322Z,17.42
2022-08-28T19:14:17.837Z,17.41
2022-08-28T19:16:46.134Z,17.38
2022-08-28T19:19:16.143Z,17.41
2022-08-28T19:21:44.351Z,17.44
2022-08-28T19:24:16.549Z,17.36
2022-08-28T19:26:45.230Z,17.26
2022-08-28T19:29:13.860Z,17.35
2022-08-28T19:31:43.762Z,17.29
2022-08-28T19:34:13.097Z,17.43
2022-08-28T19:36:42.912Z,17.17
2022-08-28T19:39:11.357Z,17.12
2022-08-28T19:41:40.085Z,16.94
2022-08-28T19:44:09.105Z,16.83
2022-08-28T19:46:39.145Z,16.75
2022-08-28T19:49:08.262Z,16.55
2022-08-28T19:51:37.713Z,16.66
2022-08-28T19:54:11.235Z,16.60
2022-08-28T19:56:40.139Z,16.58
2022-08-28T19:59:09.132Z,16.66
2022-08-28T20:01:40.256Z,16.59
2022-08-28T20:04:10.292Z,16.70
2022-08-28T20:06:41.696Z,16.72
2022-08-28T20:09:13.030Z,16.75
2022-08-28T20:11:42.449Z,16.79
2022-08-28T20:14:10.675Z,16.75
2022-08-28T20:16:41.402Z,16.67
2022-08-28T20:19:11.323Z,16.66
2022-08-28T20:21:41.207Z,16.69
2022-08-28T20:24:14.333Z,16.67
2022-08-28T20:26:42.815Z,16.48
2022-08-28T20:29:12.347Z,16.66
2022-08-28T20:31:42.284Z,16.67
2022-08-28T20:34:11.834Z,16.50
2022-08-28T20:36:40.469Z,16.34
2022-08-28T20:39:11.275Z,16.61
2022-08-28T20:41:41.483Z,16.64
2022-08-28T20:44:13.063Z,16.63
2022-08-28T20:46:42.368Z,16.63
2022-08-28T20:49:11.755Z,16.70
2022-08-28T20:51:57.093Z,16.63
2022-08-28T20:54:30.602Z,16.50
2022-08-28T20:57:02.034Z,16.49
2022-08-28T20:59:37.116Z,16.51
2022-08-28T21:02:10.542Z,16.54
2022-08-28T21:04:40.565Z,16.49
2022-08-28T21:07:09.192Z,16.33
2022-08-28T21:10:06.340Z,16.50
2022-08-28T21:12:28.829Z,16.19
2022-08-28T21:14:57.455Z,16.21
2022-08-28T21:17:29.464Z,16.40
2022-08-28T21:19:59.786Z,16.44
2022-08-28T21:22:28.054Z,16.36
2022-08-28T21:24:57.660Z,16.23
2022-08-28T21:27:26.006Z,16.27
2022-08-28T21:29:56.586Z,16.11
2022-08-28T21:32:24.702Z,16.25
2022-08-28T21:34:53.483Z,16.20
2022-08-28T21:37:21.934Z,16.31
2022-08-28T21:39:49.955Z,16.27
2022-08-28T21:42:19.934Z,16.21
2022-08-28T21:44:51.437Z,16.43
2022-08-28T21:47:20.039Z,16.40
2022-08-28T21:49:49.654Z,16.40
2022-08-28T21:52:18.242Z,16.44
2022-08-28T21:54:46.542Z,16.38
2022-08-28T21:57:15.170Z,16.39
2022-08-28T21:59:44.786Z,16.38
2022-08-28T22:02:13.176Z,16.18
2022-08-28T22:04:41.408Z,16.42
2022-08-28T22:07:11.269Z,16.34
2022-08-28T22:09:39.493Z,16.27
2022-08-28T22:12:09.218Z,16.49
2022-08-28T22:14:37.791Z,16.38
2022-08-28T22:17:11.570Z,16.36
2022-08-28T22:19:40.452Z,16.15
2022-08-28T22:22:40.982Z,16.40
2022-08-28T22:25:09.733Z,16.47
2022-08-28T22:27:37.945Z,16.37
2022-08-28T22:30:06.730Z,16.36
2022-08-28T22:32:36.518Z,16.36
2022-08-28T22:35:05.030Z,16.35
2022-08-28T22:37:33.788Z,16.38
2022-08-28T22:40:02.042Z,16.44
2022-08-28T22:42:38.339Z,16.54
2022-08-28T22:45:09.952Z,16.35
2022-08-28T22:47:39.705Z,16.30
2022-08-28T22:50:09.393Z,16.40
2022-08-28T22:52:38.136Z,16.40
2022-08-28T22:55:10.551Z,16.30
2022-08-28T22:57:40.981Z,16.42
2022-08-28T23:00:12.851Z,16.33
2022-08-28T23:02:43.235Z,16.37
2022-08-28T23:05:11.540Z,16.27
2022-08-28T23:07:39.564Z,16.38
2022-08-28T23:10:09.647Z,16.30
2022-08-28T23:12:38.190Z,16.23
2022-08-28T23:15:07.875Z,16.29
2022-08-28T23:17:36.593Z,16.34
2022-08-28T23:20:09.995Z,16.26
2022-08-28T23:22:39.124Z,16.35
2022-08-28T23:25:08.811Z,16.35
2022-08-28T23:27:37.072Z,16.35
2022-08-28T23:30:07.368Z,16.32
2022-08-28T23:32:35.744Z,16.38
2022-08-28T23:35:07.686Z,16.31
2022-08-28T23:37:37.623Z,16.32
2022-08-28T23:40:08.697Z,16.29
2022-08-28T23:42:37.167Z,16.30
2022-08-28T23:45:07.940Z,16.01
2022-08-28T23:47:40.326Z,16.20
2022-08-28T23:50:14.039Z,16.20
2022-08-28T23:52:43.209Z,16.25
2022-08-28T23:55:13.305Z,16.29
2022-08-28T23:57:41.698Z,16.31
